Time;durP1;ratioP1;P1;durP2;ratioP2;P2;SDS_P1;SDS_P2;PMS_P1;PMS_P2;Temp;Humidity;BMP_temperature;BMP_pressure;BME280_temperature;BME280_humidity;BME280_pressure;Samples;Min_cycle;Max_cycle;Signal;HPM_P1;HPM_P2
2022/06/20 00:01:46;;;;;;;7.47;6.07;;;20.10;68.40;;;;;;5074547;28;20452;-11
2022/06/20 00:04:17;;;;;;;11.65;7.63;;;20.10;68.60;;;;;;5075669;28;20040;-12
2022/06/20 00:06:43;;;;;;;10.18;7.20;;;20.00;69.00;;;;;;5076035;28;20025;-12
2022/06/20 00:09:10;;;;;;;8.65;6.07;;;20.00;69.50;;;;;;5074256;28;20031;-11
2022/06/20 00:11:43;;;;;;;9.07;6.20;;;19.90;69.50;;;;;;5074395;28;20047;-11
2022/06/20 00:14:20;;;;;;;7.57;6.07;;;19.90;69.50;;;;;;5075504;28;20059;-11
2022/06/20 00:16:47;;;;;;;7.78;6.20;;;19.90;69.80;;;;;;5075552;28;20035;-12
2022/06/20 00:19:14;;;;;;;7.60;6.40;;;19.90;69.80;;;;;;5075688;28;20025;-11
2022/06/20 00:21:41;;;;;;;9.23;6.35;;;19.90;70.20;;;;;;5075622;28;20068;-12
2022/06/20 00:24:08;;;;;;;7.28;6.18;;;20.00;70.00;;;;;;5075612;28;20040;-11
2022/06/20 00:26:35;;;;;;;8.82;6.45;;;19.90;70.00;;;;;;5075484;28;20359;-11
2022/06/20 00:29:03;;;;;;;8.02;6.00;;;19.90;69.90;;;;;;5075583;28;20043;-11
2022/06/20 00:31:29;;;;;;;8.38;7.18;;;19.90;70.00;;;;;;5075444;28;20095;-11
2022/06/20 00:33:55;;;;;;;10.93;7.28;;;19.90;70.30;;;;;;5075602;28;20035;-10
2022/06/20 00:36:21;;;;;;;9.88;7.47;;;19.90;70.30;;;;;;5074958;28;20554;-12
2022/06/20 00:38:52;;;;;;;9.98;7.13;;;19.90;70.30;;;;;;5075116;28;20082;-11
2022/06/20 00:41:23;;;;;;;10.10;7.57;;;19.90;70.50;;;;;;5075330;28;20024;-11
2022/06/20 00:43:52;;;;;;;8.43;6.72;;;19.80;70.60;;;;;;5075641;28;20090;-11
2022/06/20 00:46:29;;;;;;;10.95;7.38;;;19.90;70.70;;;;;;5075111;28;20025;-11
2022/06/20 00:49:14;;;;;;;10.05;7.07;;;19.80;70.90;;;;;;5075201;28;20021;-11
2022/06/20 00:52:04;;;;;;;11.50;7.57;;;19.80;71.50;;;;;;5074811;28;20052;-11
2022/06/20 00:54:38;;;;;;;10.00;6.93;;;19.70;71.20;;;;;;5074617;28;20457;-11
2022/06/20 00:57:11;;;;;;;10.60;7.22;;;19.70;71.10;;;;;;5074771;28;20025;-12
2022/06/20 00:59:43;;;;;;;9.55;6.80;;;19.70;71.20;;;;;;5074780;28;20074;-12
2022/06/20 01:02:13;;;;;;;9.77;7.00;;;19.70;71.20;;;;;;5075000;28;20043;-11
2022/06/20 01:04:52;;;;;;;9.50;8.00;;;19.70;71.10;;;;;;5074317;28;20023;-11
2022/06/20 01:07:40;;;;;;;9.23;7.28;;;19.70;71.60;;;;;;5074512;28;20024;-11
2022/06/20 01:10:10;;;;;;;11.75;7.80;;;19.60;71.50;;;;;;5074615;28;20484;-11
2022/06/20 01:12:47;;;;;;;13.32;9.55;;;19.50;71.60;;;;;;5074220;28;20032;-12
2022/06/20 01:15:26;;;;;;;10.57;7.82;;;19.40;72.30;;;;;;5074387;28;20103;-12
2022/06/20 01:17:53;;;;;;;10.23;8.23;;;19.40;72.70;;;;;;5074916;28;20029;-11
2022/06/20 01:20:26;;;;;;;10.18;7.70;;;19.30;73.20;;;;;;5073897;28;20485;-11
2022/06/20 01:23:32;;;;;;;9.23;7.45;;;19.30;72.60;;;;;;5073042;28;20025;-12
2022/06/20 01:26:20;;;;;;;8.27;6.70;;;19.30;73.00;;;;;;5074768;28;20020;-12
2022/06/20 01:28:49;;;;;;;10.40;7.15;;;19.20;73.10;;;;;;5074126;28;20358;-12
2022/06/20 01:31:17;;;;;;;7.90;6.38;;;19.20;72.60;;;;;;5074348;28;20072;-11
2022/06/20 01:33:44;;;;;;;12.77;8.20;;;19.20;72.60;;;;;;5074260;28;20047;-11
2022/06/20 01:38:59;;;;;;;9.93;8.23;;;19.10;73.10;;;;;;5074565;28;20035;-12
2022/06/20 01:44:11;;;;;;;8.52;6.95;;;19.00;73.80;;;;;;5074141;28;20048;-11
2022/06/20 01:46:37;;;;;;;10.95;8.32;;;18.90;74.20;;;;;;5073382;28;20047;-12
2022/06/20 01:49:24;;;;;;;12.00;8.10;;;18.90;74.60;;;;;;5073949;28;20388;-12
2022/06/20 01:52:00;;;;;;;10.88;7.95;;;18.80;74.90;;;;;;5073457;28;20566;-10
2022/06/20 01:54:32;;;;;;;10.23;7.75;;;18.70;74.60;;;;;;5073769;28;20024;-11
2022/06/20 01:56:58;;;;;;;10.68;8.20;;;18.70;74.40;;;;;;5073975;28;20104;-11
2022/06/20 01:59:40;;;;;;;11.52;8.35;;;18.70;74.60;;;;;;5073907;28;20024;-11
2022/06/20 02:02:06;;;;;;;15.95;9.77;;;18.70;74.90;;;;;;5073861;28;20035;-11
2022/06/20 02:04:36;;;;;;;13.00;8.90;;;18.60;75.10;;;;;;5073134;28;20020;-11
2022/06/20 02:07:07;;;;;;;13.80;10.32;;;18.60;74.90;;;;;;5073708;28;20020;-10
2022/06/20 02:09:34;;;;;;;11.73;8.90;;;18.60;74.90;;;;;;5073323;28;20489;-11
2022/06/20 02:12:02;;;;;;;12.35;10.50;;;18.60;75.20;;;;;;5073343;28;20025;-11
2022/06/20 02:14:52;;;;;;;13.45;9.70;;;18.60;75.50;;;;;;5073162;28;20477;-11
2022/06/20 02:17:29;;;;;;;9.82;7.13;;;18.50;75.80;;;;;;5073645;28;20029;-11
2022/06/20 02:19:58;;;;;;;10.50;8.02;;;18.50;75.50;;;;;;5073163;28;20583;-11
2022/06/20 02:22:26;;;;;;;14.15;10.20;;;18.50;75.30;;;;;;5073181;28;20025;-11
2022/06/20 02:24:59;;;;;;;12.80;9.60;;;18.50;75.40;;;;;;5073670;28;20028;-10
2022/06/20 02:27:32;;;;;;;13.60;10.07;;;18.50;75.70;;;;;;5073542;28;20034;-11
2022/06/20 02:29:59;;;;;;;12.80;7.85;;;18.40;75.70;;;;;;5073123;28;20115;-11
2022/06/20 02:32:29;;;;;;;11.85;8.52;;;18.40;75.60;;;;;;5072813;28;20036;-9
2022/06/20 02:34:55;;;;;;;11.25;8.90;;;18.40;75.60;;;;;;5073001;28;20499;-11
2022/06/20 02:37:24;;;;;;;12.50;9.00;;;18.40;75.40;;;;;;5073448;28;20107;-12
2022/06/20 02:39:57;;;;;;;12.38;8.13;;;18.40;75.60;;;;;;5073033;28;20491;-11
2022/06/20 02:42:34;;;;;;;11.05;8.05;;;18.40;75.40;;;;;;5073187;28;20099;-11
2022/06/20 02:45:03;;;;;;;11.52;8.45;;;18.40;75.50;;;;;;5073384;28;20025;-11
2022/06/20 02:47:30;;;;;;;12.60;9.27;;;18.40;75.60;;;;;;5073644;28;20036;-10
2022/06/20 02:50:00;;;;;;;11.45;8.10;;;18.40;75.70;;;;;;5072963;28;20029;-11
2022/06/20 02:52:44;;;;;;;12.15;9.98;;;18.30;75.60;;;;;;5072564;28;20113;-11
2022/06/20 02:55:13;;;;;;;12.82;9.38;;;18.20;75.90;;;;;;5073804;28;20115;-11
2022/06/20 02:57:44;;;;;;;11.13;8.57;;;18.20;76.20;;;;;;5073817;28;20028;-11
2022/06/20 03:00:20;;;;;;;11.25;8.30;;;18.20;76.00;;;;;;5076940;28;20043;-11
2022/06/20 03:02:59;;;;;;;16.10;12.38;;;18.20;76.20;;;;;;5077283;28;20028;-11
2022/06/20 03:05:26;;;;;;;20.55;13.52;;;18.10;76.80;;;;;;5076817;28;20021;-11
2022/06/20 03:07:54;;;;;;;13.65;11.27;;;18.10;77.00;;;;;;5075580;28;20074;-11
2022/06/20 03:10:25;;;;;;;11.38;8.95;;;18.00;77.40;;;;;;5076408;28;20032;-12
2022/06/20 03:12:53;;;;;;;11.48;9.30;;;18.10;76.80;;;;;;5077397;28;20027;-11
2022/06/20 03:15:20;;;;;;;11.45;9.65;;;18.00;76.70;;;;;;5076870;28;20046;-11
2022/06/20 03:17:50;;;;;;;16.35;12.55;;;18.00;76.90;;;;;;5075399;28;20081;-11
2022/06/20 03:20:19;;;;;;;19.50;14.00;;;18.00;77.30;;;;;;5077321;28;20056;-12
2022/06/20 03:23:01;;;;;;;14.38;10.93;;;18.00;77.50;;;;;;5076791;28;20029;-11
2022/06/20 03:25:28;;;;;;;15.77;10.10;;;18.00;77.90;;;;;;5075294;28;20036;-11
2022/06/20 03:27:53;;;;;;;16.48;12.10;;;17.90;78.20;;;;;;5076358;28;20062;-11
2022/06/20 03:30:23;;;;;;;16.48;10.85;;;17.90;78.10;;;;;;5076193;28;20114;-12
2022/06/20 03:32:49;;;;;;;14.52;10.15;;;17.90;78.00;;;;;;5076296;28;20032;-12
2022/06/20 03:35:16;;;;;;;14.10;10.50;;;17.90;78.40;;;;;;5076153;28;20031;-11
2022/06/20 03:37:42;;;;;;;12.43;9.25;;;17.90;78.10;;;;;;5076181;28;20027;-12
2022/06/20 03:40:10;;;;;;;13.48;9.27;;;18.00;77.70;;;;;;5076276;28;20025;-11
2022/06/20 03:42:37;;;;;;;13.32;10.10;;;18.00;77.80;;;;;;5075925;28;20427;-11
2022/06/20 03:45:07;;;;;;;13.10;10.05;;;17.90;77.70;;;;;;5076748;28;20033;-12
2022/06/20 03:47:40;;;;;;;13.38;9.82;;;17.90;77.60;;;;;;5076385;28;20024;-12
2022/06/20 03:50:06;;;;;;;;;;;17.90;77.50;;;;;;5076334;28;20064;-12
2022/06/20 03:52:58;;;;;;;13.85;10.15;;;17.90;77.80;;;;;;5074639;28;20368;-12
2022/06/20 03:55:47;;;;;;;15.85;11.43;;;17.90;77.60;;;;;;5074325;28;20432;-12
2022/06/20 03:58:21;;;;;;;12.82;9.93;;;18.00;77.80;;;;;;5074747;28;20477;-12
2022/06/20 04:00:55;;;;;;;14.40;10.40;;;18.00;77.40;;;;;;5074699;28;20028;-12
2022/06/20 04:03:34;;;;;;;13.75;10.93;;;18.10;77.40;;;;;;5074888;28;20082;-12
2022/06/20 04:06:14;;;;;;;13.82;10.48;;;18.10;77.40;;;;;;5075134;28;20052;-13
2022/06/20 04:11:43;;;;;;;12.05;9.88;;;18.20;77.20;;;;;;5074529;28;20095;-12
2022/06/20 04:14:27;;;;;;;13.60;11.00;;;18.30;77.00;;;;;;5074847;28;20028;-11
2022/06/20 04:18:26;;;;;;;12.50;9.00;;;18.40;77.00;;;;;;5074795;28;20025;-12
2022/06/20 04:19:49;;;;;;;12.15;10.25;;;18.50;77.00;;;;;;5074559;28;20029;-11
2022/06/20 04:22:19;;;;;;;15.55;10.60;;;18.50;76.90;;;;;;5074141;28;20029;-11
2022/06/20 04:25:06;;;;;;;13.95;11.00;;;18.60;76.90;;;;;;5075387;28;20016;-11
2022/06/20 04:27:35;;;;;;;16.00;11.80;;;18.70;77.20;;;;;;5072895;28;20024;-12
2022/06/20 04:30:23;;;;;;;15.60;12.35;;;18.80;77.10;;;;;;5074133;28;20404;-12
2022/06/20 04:32:57;;;;;;;20.58;13.43;;;18.90;77.00;;;;;;5074204;28;20424;-11
2022/06/20 04:35:33;;;;;;;25.13;17.55;;;18.90;76.60;;;;;;5074386;28;20100;-12
2022/06/20 04:38:10;;;;;;;15.25;10.75;;;19.00;76.60;;;;;;5074457;28;20024;-12
2022/06/20 04:40:41;;;;;;;19.15;16.02;;;19.20;76.70;;;;;;5074242;28;20017;-12
2022/06/20 04:43:17;;;;;;;18.65;14.45;;;19.30;76.90;;;;;;5074611;28;20488;-11
2022/06/20 04:45:49;;;;;;;18.40;13.90;;;19.40;76.40;;;;;;5074022;28;20472;-11
2022/06/20 04:48:16;;;;;;;18.55;14.48;;;19.50;76.50;;;;;;5073737;28;20451;-11
2022/06/20 04:50:47;;;;;;;23.15;16.25;;;19.60;76.10;;;;;;5021524;28;1487614;-12
2022/06/20 04:53:21;;;;;;;19.23;14.18;;;19.70;75.80;;;;;;5073621;28;20025;-12
2022/06/20 04:55:52;;;;;;;13.88;10.73;;;19.90;75.70;;;;;;5073595;28;20035;-11
2022/06/20 04:58:26;;;;;;;16.77;11.13;;;19.90;76.10;;;;;;5074685;28;20016;-11
2022/06/20 05:00:53;;;;;;;17.95;13.25;;;20.10;75.40;;;;;;5074648;28;20028;-12
2022/06/20 05:03:34;;;;;;;16.55;14.40;;;20.20;75.90;;;;;;5075026;28;20404;-11
2022/06/20 05:06:04;;;;;;;13.82;11.77;;;20.30;75.90;;;;;;5074521;28;20060;-12
2022/06/20 05:08:33;;;;;;;13.35;10.85;;;20.40;75.40;;;;;;5074224;28;20111;-11
2022/06/20 05:11:15;;;;;;;18.02;13.13;;;20.50;74.70;;;;;;5075296;28;20040;-11
2022/06/20 05:13:48;;;;;;;22.33;15.70;;;20.70;75.30;;;;;;5074465;28;20036;-12
2022/06/20 05:16:23;;;;;;;19.08;14.10;;;20.80;75.60;;;;;;5074677;28;20085;-13
2022/06/20 05:18:54;;;;;;;19.52;15.07;;;20.90;74.80;;;;;;5074676;28;20047;-11
2022/06/20 05:21:28;;;;;;;13.52;12.13;;;21.00;75.10;;;;;;5073707;28;20134;-12
2022/06/20 05:23:58;;;;;;;13.73;11.85;;;21.20;74.80;;;;;;5074394;28;20067;-12
2022/06/20 05:26:28;;;;;;;12.43;9.40;;;21.40;74.80;;;;;;5074292;28;20032;-11
2022/06/20 05:28:57;;;;;;;15.00;11.80;;;21.40;73.60;;;;;;5074193;28;20017;-9
2022/06/20 05:31:35;;;;;;;17.58;11.10;;;21.60;73.50;;;;;;5073933;28;20081;-12
2022/06/20 05:34:22;;;;;;;17.90;12.23;;;21.70;73.20;;;;;;5074661;28;20476;-9
2022/06/20 05:36:56;;;;;;;13.30;10.90;;;21.90;73.40;;;;;;5074174;28;20024;-12
2022/06/20 05:39:30;;;;;;;15.88;10.77;;;22.00;72.70;;;;;;5073908;28;20031;-9
2022/06/20 05:41:56;;;;;;;13.35;10.07;;;22.30;72.20;;;;;;5074104;28;20135;-9
2022/06/20 05:44:22;;;;;;;12.40;9.93;;;22.40;71.60;;;;;;5073861;28;20071;-9
2022/06/20 05:46:56;;;;;;;13.98;9.32;;;22.50;71.30;;;;;;5073961;28;20031;-11
2022/06/20 05:49:38;;;;;;;13.70;9.70;;;22.70;71.00;;;;;;5074805;28;20033;-12
2022/06/20 05:52:07;;;;;;;15.48;10.23;;;22.90;70.10;;;;;;5073440;28;20400;-9
2022/06/20 05:54:51;;;;;;;15.20;9.15;;;23.00;69.70;;;;;;5073708;28;20077;-9
2022/06/20 05:57:22;;;;;;;14.48;9.98;;;23.20;69.50;;;;;;5073911;28;20032;-9
2022/06/20 05:59:56;;;;;;;13.63;9.95;;;23.30;69.30;;;;;;5073903;28;20104;-11
2022/06/20 06:02:32;;;;;;;14.45;9.40;;;23.40;68.70;;;;;;5073289;28;20119;-12
2022/06/20 06:05:04;;;;;;;11.80;8.43;;;23.50;68.30;;;;;;5073718;28;20027;-11
2022/06/20 06:08:03;;;;;;;11.90;8.80;;;23.60;68.10;;;;;;5073390;28;20408;-11
2022/06/20 06:10:52;;;;;;;13.57;10.07;;;23.70;68.10;;;;;;5064638;28;20029;-9
2022/06/20 06:13:41;;;;;;;12.98;8.23;;;23.90;67.90;;;;;;5073405;28;20052;-9
2022/06/20 06:16:51;;;;;;;11.18;7.82;;;24.00;67.20;;;;;;5074205;28;20104;-9
2022/06/20 06:19:44;;;;;;;11.27;8.40;;;24.10;67.10;;;;;;5073580;28;20025;-8
2022/06/20 06:22:20;;;;;;;9.77;7.75;;;24.30;66.40;;;;;;5073152;28;20365;-9
2022/06/20 06:24:52;;;;;;;12.18;7.80;;;24.50;65.80;;;;;;5073319;28;20492;-9
2022/06/20 06:27:30;;;;;;;12.77;8.80;;;24.60;65.80;;;;;;5073485;28;20447;-8
2022/06/20 06:30:04;;;;;;;10.70;7.47;;;24.80;65.40;;;;;;5073467;28;20029;-9
2022/06/20 06:32:56;;;;;;;13.02;9.27;;;24.90;65.10;;;;;;5072892;28;20079;-8
2022/06/20 06:35:34;;;;;;;11.73;8.10;;;25.00;64.90;;;;;;5072962;28;20056;-9
2022/06/20 06:38:02;;;;;;;12.77;7.65;;;25.10;64.90;;;;;;5073388;28;20036;-9
2022/06/20 06:40:48;;;;;;;13.43;9.13;;;25.20;64.50;;;;;;5072923;28;20385;-9
2022/06/20 06:43:29;;;;;;;10.43;7.60;;;25.40;65.10;;;;;;5073352;28;20024;-9
2022/06/20 06:46:00;;;;;;;11.73;7.18;;;25.50;63.90;;;;;;5073050;28;20024;-9
2022/06/20 06:49:14;;;;;;;10.85;7.80;;;25.60;63.70;;;;;;5072870;28;20040;-9
2022/06/20 06:52:03;;;;;;;10.20;8.20;;;25.80;63.20;;;;;;5056194;28;20053;-8
2022/06/20 06:54:46;;;;;;;10.02;7.18;;;25.90;63.10;;;;;;5073010;28;20035;-12
2022/06/20 06:57:21;;;;;;;9.85;7.25;;;26.00;62.90;;;;;;5073352;28;20492;-8
2022/06/20 07:00:06;;;;;;;9.45;7.00;;;26.20;62.60;;;;;;5072827;28;20040;-9
2022/06/20 07:02:42;;;;;;;10.20;7.13;;;26.20;62.10;;;;;;5072575;28;20035;-9
2022/06/20 07:05:12;;;;;;;6.05;5.18;;;26.40;61.60;;;;;;5073208;28;20096;-8
2022/06/20 07:07:44;;;;;;;8.63;6.50;;;26.50;61.50;;;;;;5073060;28;20024;-9
2022/06/20 07:10:36;;;;;;;8.97;5.87;;;26.60;61.00;;;;;;5073026;28;20032;-8
2022/06/20 07:13:15;;;;;;;8.45;5.60;;;26.80;60.80;;;;;;5072746;28;20481;-9
2022/06/20 07:15:42;;;;;;;7.47;5.68;;;26.90;60.60;;;;;;5073375;28;20389;-9
2022/06/20 07:18:36;;;;;;;7.97;6.25;;;27.00;60.40;;;;;;5072639;28;20024;-9
2022/06/20 07:21:04;;;;;;;6.88;5.45;;;27.20;59.40;;;;;;5072620;28;20043;-9
2022/06/20 07:23:30;;;;;;;6.43;5.15;;;27.40;59.60;;;;;;5073001;28;20024;-7
2022/06/20 07:25:57;;;;;;;6.40;5.28;;;27.50;59.10;;;;;;5072599;28;20389;-8
2022/06/20 07:28:35;;;;;;;6.95;5.47;;;27.70;58.90;;;;;;5072381;28;20017;-9
2022/06/20 07:31:08;;;;;;;6.38;5.03;;;27.80;57.70;;;;;;5072424;28;20369;-8
2022/06/20 07:33:48;;;;;;;9.65;5.00;;;27.90;58.30;;;;;;5072900;28;20028;-9
2022/06/20 07:36:22;;;;;;;7.38;5.00;;;28.10;57.50;;;;;;5072537;28;20025;-10
2022/06/20 07:39:17;;;;;;;6.25;4.95;;;28.20;57.00;;;;;;5072918;28;20045;-9
2022/06/20 07:41:49;;;;;;;6.88;5.53;;;28.20;56.90;;;;;;5069598;28;20060;-8
2022/06/20 07:44:29;;;;;;;7.68;5.60;;;28.40;56.50;;;;;;5074321;28;20024;-9
2022/06/20 07:47:27;;;;;;;7.80;4.80;;;28.60;55.50;;;;;;5074849;28;20024;-9
2022/06/20 07:49:55;;;;;;;5.65;4.50;;;28.80;55.90;;;;;;5074782;28;20492;-9
2022/06/20 07:52:35;;;;;;;6.63;4.80;;;28.90;55.20;;;;;;5076460;28;20131;-8
2022/06/20 07:55:07;;;;;;;8.40;5.00;;;29.10;54.30;;;;;;5076239;28;20029;-9
2022/06/20 07:57:43;;;;;;;6.17;4.70;;;29.20;53.90;;;;;;5074762;28;20017;-9
2022/06/20 08:00:18;;;;;;;7.05;5.20;;;29.40;51.60;;;;;;5076206;28;20255;-9
2022/06/20 08:02:57;;;;;;;6.65;5.13;;;29.50;52.00;;;;;;5076413;28;20103;-9
2022/06/20 08:05:35;;;;;;;7.15;5.05;;;29.70;52.00;;;;;;5076072;28;20025;-8
2022/06/20 08:08:16;;;;;;;8.68;5.28;;;29.90;51.80;;;;;;5075758;28;20079;-9
2022/06/20 08:10:54;;;;;;;8.65;6.10;;;30.20;51.40;;;;;;5076545;28;20484;-8
2022/06/20 08:13:34;;;;;;;8.23;5.53;;;30.40;51.40;;;;;;5076188;28;20071;-9
2022/06/20 08:16:11;;;;;;;8.40;6.25;;;30.50;51.70;;;;;;5075922;28;20025;-9
2022/06/20 08:18:37;;;;;;;9.95;6.47;;;30.80;51.40;;;;;;5075394;28;20077;-9
2022/06/20 08:21:25;;;;;;;7.30;5.78;;;31.00;51.10;;;;;;5075353;28;20499;-9
2022/06/20 08:24:16;;;;;;;7.32;5.60;;;31.20;50.70;;;;;;5075720;28;20473;-8
2022/06/20 08:27:04;;;;;;;6.60;5.05;;;31.40;50.00;;;;;;5075288;28;20075;-9
2022/06/20 08:29:40;;;;;;;8.60;5.72;;;31.70;49.30;;;;;;5076151;28;20119;-8
2022/06/20 08:32:10;;;;;;;7.70;5.97;;;32.00;48.30;;;;;;5075648;28;20109;-9
2022/06/20 08:34:51;;;;;;;6.50;4.68;;;32.20;46.10;;;;;;5075060;28;20066;-8
2022/06/20 08:37:34;;;;;;;6.68;5.88;;;32.40;47.20;;;;;;5075443;28;20380;-9
2022/06/20 08:40:21;;;;;;;6.95;5.28;;;32.60;46.60;;;;;;5075166;28;20039;-9
2022/06/20 08:43:24;;;;;;;6.97;5.10;;;32.80;44.30;;;;;;5075005;28;20392;-8
2022/06/20 08:46:19;;;;;;;6.32;5.05;;;32.80;45.20;;;;;;5074797;28;20033;-9
2022/06/20 08:49:04;;;;;;;8.05;5.20;;;32.90;43.60;;;;;;5074853;28;20078;-9
2022/06/20 08:51:42;;;;;;;60.70;7.72;;;32.90;44.10;;;;;;5074631;28;20056;-9
2022/06/20 08:54:41;;;;;;;13.68;5.45;;;32.90;44.50;;;;;;5076022;28;20021;-8
2022/06/20 08:57:17;;;;;;;9.52;5.20;;;32.90;44.80;;;;;;5074497;28;20136;-9
2022/06/20 09:00:00;;;;;;;7.55;5.80;;;32.90;43.50;;;;;;5074787;28;20492;-9
2022/06/20 09:02:46;;;;;;;5.03;4.53;;;32.90;44.00;;;;;;5074656;28;20103;-8
2022/06/20 09:05:22;;;;;;;9.73;5.80;;;32.90;44.80;;;;;;5063318;28;20032;-9
2022/06/20 09:07:54;;;;;;;5.78;4.70;;;33.00;43.60;;;;;;5075247;28;20119;-9
2022/06/20 09:10:36;;;;;;;6.93;5.50;;;33.00;44.90;;;;;;5074268;28;20116;-8
2022/06/20 09:13:42;;;;;;;6.00;4.40;;;33.10;44.50;;;;;;5075107;28;20251;-9
2022/06/20 09:16:22;;;;;;;9.48;4.38;;;33.40;43.10;;;;;;5052367;28;20036;-9
2022/06/20 09:19:09;;;;;;;5.57;4.35;;;33.80;42.90;;;;;;5052367;28;20389;-9
2022/06/20 09:22:06;;;;;;;4.60;3.83;;;34.00;41.00;;;;;;5068144;28;20108;-9
2022/06/20 09:24:38;;;;;;;5.60;4.20;;;34.10;40.10;;;;;;5074095;28;20016;-10
2022/06/20 09:27:09;;;;;;;6.83;4.23;;;34.40;38.40;;;;;;5074189;28;20032;-8
2022/06/20 09:29:43;;;;;;;5.82;4.00;;;34.60;38.00;;;;;;5074354;28;20036;-9
2022/06/20 09:32:32;;;;;;;5.93;4.10;;;34.90;37.40;;;;;;5074400;28;20408;-9
2022/06/20 09:35:07;;;;;;;5.25;4.00;;;35.10;37.70;;;;;;5074035;28;20469;-8
2022/06/20 09:37:54;;;;;;;4.70;3.80;;;35.40;37.70;;;;;;5074247;28;20114;-9
2022/06/20 09:40:58;;;;;;;5.03;3.97;;;35.70;37.80;;;;;;5073613;28;20044;-9
2022/06/20 09:43:32;;;;;;;8.32;4.55;;;35.90;37.00;;;;;;5062537;28;20041;-9
2022/06/20 09:46:18;;;;;;;6.22;4.72;;;36.20;37.40;;;;;;5073977;28;20032;-9
2022/06/20 09:48:56;;;;;;;6.13;4.10;;;36.00;37.20;;;;;;5073608;28;20111;-9
2022/06/20 09:51:28;;;;;;;9.25;4.63;;;35.70;37.40;;;;;;5073584;28;20061;-9
2022/06/20 09:54:16;;;;;;;6.03;4.20;;;35.50;38.00;;;;;;5073802;28;20388;-9
2022/06/20 09:56:52;;;;;;;5.53;4.20;;;35.50;38.00;;;;;;5073995;28;20086;-9
2022/06/20 09:59:37;;;;;;;4.95;4.15;;;35.50;38.00;;;;;;5073540;28;20450;-9
2022/06/20 10:02:30;;;;;;;6.00;4.47;;;35.70;38.10;;;;;;5073863;28;20149;-9
2022/06/20 10:05:02;;;;;;;5.63;4.60;;;36.20;36.40;;;;;;5073578;28;20020;-9
2022/06/20 10:07:51;;;;;;;5.53;4.88;;;36.40;35.90;;;;;;5073110;28;20480;-8
2022/06/20 10:10:43;;;;;;;8.13;4.30;;;36.60;35.90;;;;;;5073170;28;20074;-8
2022/06/20 10:13:23;;;;;;;5.97;4.43;;;36.60;35.40;;;;;;5073481;28;20033;-9
2022/06/20 10:16:00;;;;;;;5.28;4.15;;;36.50;36.10;;;;;;5073657;28;20047;-9
2022/06/20 10:18:46;;;;;;;4.85;4.10;;;36.50;35.40;;;;;;5073579;28;20024;-9
2022/06/20 10:21:37;;;;;;;5.50;4.35;;;36.60;36.20;;;;;;5071974;28;20032;-9
2022/06/20 10:24:42;;;;;;;6.05;4.10;;;36.90;35.30;;;;;;5073202;28;20489;-9
2022/06/20 10:27:39;;;;;;;9.65;5.38;;;37.30;34.40;;;;;;5069285;28;20090;-9
2022/06/20 10:30:33;;;;;;;5.72;4.20;;;37.50;33.60;;;;;;5073127;28;20042;-8
2022/06/20 10:33:18;;;;;;;7.88;4.70;;;37.60;34.80;;;;;;5074273;28;20044;-9
2022/06/20 10:35:54;;;;;;;5.13;4.32;;;37.80;34.70;;;;;;5073107;28;20033;-8
2022/06/20 10:38:28;;;;;;;5.95;4.32;;;37.70;34.30;;;;;;5072895;28;20025;-9
2022/06/20 10:41:20;;;;;;;4.85;4.35;;;37.60;34.80;;;;;;5073090;28;20032;-9
2022/06/20 10:44:12;;;;;;;6.75;4.60;;;37.80;34.80;;;;;;5073401;28;20013;-9
2022/06/20 10:46:42;;;;;;;7.15;4.57;;;37.80;34.80;;;;;;5072915;28;20033;-9
2022/06/20 10:49:15;;;;;;;8.60;4.22;;;37.80;35.20;;;;;;5073593;28;20549;-9
2022/06/20 10:52:01;;;;;;;9.55;4.25;;;38.10;34.80;;;;;;5072739;28;20537;-9
2022/06/20 10:54:42;;;;;;;9.20;4.80;;;38.40;34.10;;;;;;5073110;28;20109;-9
2022/06/20 10:57:08;;;;;;;5.85;5.00;;;38.80;32.90;;;;;;5073299;28;20052;-9
2022/06/20 10:59:57;;;;;;;5.35;4.85;;;39.20;32.30;;;;;;5072872;28;20472;-9
2022/06/20 11:02:37;;;;;;;6.55;4.57;;;39.40;32.40;;;;;;5072740;28;20477;-9
2022/06/20 11:05:31;;;;;;;9.60;4.93;;;39.80;31.40;;;;;;5073213;28;20029;-9
2022/06/20 11:08:18;;;;;;;9.13;5.13;;;40.10;30.60;;;;;;5072801;28;20425;-11
2022/06/20 11:11:21;;;;;;;13.52;4.97;;;40.40;31.10;;;;;;5072676;28;20449;-11
2022/06/20 11:13:54;;;;;;;5.20;4.22;;;40.70;30.30;;;;;;5073041;28;20024;-11
2022/06/20 11:16:43;;;;;;;7.25;4.80;;;40.80;30.00;;;;;;5072733;28;20107;-11
2022/06/20 11:19:34;;;;;;;6.68;4.43;;;40.90;29.80;;;;;;5074668;28;20039;-11
2022/06/20 11:22:23;;;;;;;6.95;4.90;;;40.90;30.10;;;;;;5076525;28;20032;-12
2022/06/20 11:25:17;;;;;;;7.10;5.00;;;41.20;30.30;;;;;;5076343;28;20035;-11
2022/06/20 11:28:15;;;;;;;7.68;5.03;;;41.30;30.00;;;;;;5076544;28;20028;-11
2022/06/20 11:30:49;;;;;;;6.57;4.55;;;41.10;30.20;;;;;;5066910;28;20036;-11
2022/06/20 11:36:32;;;;;;;5.90;4.90;;;41.50;30.30;;;;;;5076460;28;20085;-11
2022/06/20 11:39:35;;;;;;;8.10;5.05;;;41.40;30.40;;;;;;5076607;28;20040;-11
2022/06/20 11:42:24;;;;;;;7.50;5.13;;;41.00;30.40;;;;;;5076189;28;20524;-9
2022/06/20 11:45:08;;;;;;;6.28;5.00;;;40.40;30.90;;;;;;5076211;28;20025;-9
2022/06/20 11:47:48;;;;;;;10.40;5.60;;;40.40;31.60;;;;;;5076441;28;20035;-9
2022/06/20 11:50:13;;;;;;;7.47;4.50;;;40.20;31.20;;;;;;5076021;28;20032;-9
2022/06/20 11:53:02;;;;;;;9.43;4.88;;;39.50;31.70;;;;;;5075838;28;20078;-9
2022/06/20 11:55:37;;;;;;;5.07;4.57;;;39.10;32.60;;;;;;5076009;28;20114;-9
2022/06/20 11:58:12;;;;;;;8.35;5.20;;;39.00;33.20;;;;;;5076301;28;20071;-8
2022/06/20 12:00:51;;;;;;;7.75;5.45;;;38.90;32.80;;;;;;5076005;28;20029;-9
2022/06/20 12:03:43;;;;;;;10.38;5.65;;;38.90;33.20;;;;;;5075897;28;20021;-11
2022/06/20 12:06:42;;;;;;;9.25;4.90;;;38.60;32.40;;;;;;5065962;28;20055;-11
2022/06/20 12:09:39;;;;;;;9.57;5.07;;;38.50;33.40;;;;;;5075774;28;20498;-8
2022/06/20 12:12:17;;;;;;;6.53;4.95;;;38.30;33.50;;;;;;5075892;28;20421;-9
2022/06/20 12:15:34;;;;;;;7.50;4.93;;;38.10;34.00;;;;;;5075986;28;20079;-9
2022/06/20 12:18:09;;;;;;;7.95;4.93;;;38.20;34.50;;;;;;5053364;28;20083;-8
2022/06/20 12:23:37;;;;;;;6.13;4.68;;;39.00;33.60;;;;;;5053793;28;20455;-9
2022/06/20 12:26:11;;;;;;;6.70;4.43;;;39.40;33.00;;;;;;5053416;28;20032;-9
2022/06/20 12:28:42;;;;;;;7.30;4.28;;;39.90;31.90;;;;;;5053083;28;20045;-9
2022/06/20 12:31:08;;;;;;;5.50;4.15;;;40.60;31.80;;;;;;5052969;28;20040;-9
2022/06/20 12:33:41;;;;;;;6.78;4.80;;;41.10;31.40;;;;;;5053258;28;20033;-9
2022/06/20 12:36:24;;;;;;;5.32;4.20;;;41.70;30.10;;;;;;5036589;28;20071;-9
2022/06/20 12:39:15;;;;;;;5.82;4.05;;;42.10;30.30;;;;;;5053138;28;20033;-9
2022/06/20 12:41:47;;;;;;;4.50;3.75;;;42.60;29.50;;;;;;5053071;28;20036;-9
2022/06/20 12:44:18;;;;;;;9.32;4.90;;;42.90;29.90;;;;;;5053099;28;20033;-9
2022/06/20 12:46:53;;;;;;;9.43;4.57;;;43.40;29.20;;;;;;5052958;28;20412;-9
2022/06/20 12:49:25;;;;;;;6.47;4.20;;;43.50;28.90;;;;;;5069308;28;20278;-9
2022/06/20 12:51:50;;;;;;;;;;;43.50;26.80;;;;;;5075471;28;20079;-9
2022/06/20 12:54:39;;;;;;;9.00;4.70;;;43.30;27.10;;;;;;5074753;28;19958;-12
2022/06/20 12:57:41;;;;;;;7.45;4.63;;;42.90;26.70;;;;;;5074842;28;20056;-9
2022/06/20 13:00:22;;;;;;;6.28;4.35;;;42.20;27.40;;;;;;5074761;28;20075;-8
2022/06/20 13:03:17;;;;;;;6.85;4.03;;;41.60;28.40;;;;;;5075058;28;20025;-9
2022/06/20 13:06:20;;;;;;;5.38;4.20;;;41.60;28.80;;;;;;5074592;28;20038;-9
2022/06/20 13:09:01;;;;;;;6.35;4.90;;;42.10;27.70;;;;;;5075163;28;20480;-9
2022/06/20 13:12:03;;;;;;;8.95;4.80;;;42.20;27.50;;;;;;5074438;28;20040;-9
2022/06/20 13:14:29;;;;;;;9.35;4.90;;;42.00;27.50;;;;;;5070334;28;20504;-11
2022/06/20 13:16:57;;;;;;;8.15;4.50;;;41.80;28.20;;;;;;5074326;28;20043;-12
2022/06/20 13:19:54;;;;;;;6.22;4.53;;;41.80;27.70;;;;;;5074594;28;20500;-11
2022/06/20 13:22:42;;;;;;;9.20;5.03;;;41.80;28.10;;;;;;5074041;28;20025;-11
2022/06/20 13:25:32;;;;;;;9.13;4.78;;;41.60;28.30;;;;;;5074990;28;20029;-11
2022/06/20 13:28:44;;;;;;;8.30;5.10;;;41.40;28.50;;;;;;5074796;28;20419;-11
2022/06/20 13:31:16;;;;;;;13.20;4.82;;;41.40;28.40;;;;;;5052822;28;20025;-12
2022/06/20 13:33:56;;;;;;;8.70;5.18;;;41.60;28.30;;;;;;5052429;28;20147;-12
2022/06/20 13:36:40;;;;;;;10.77;4.85;;;41.60;28.40;;;;;;5035159;28;20075;-11
2022/06/20 13:39:26;;;;;;;13.00;5.28;;;41.70;27.90;;;;;;5052107;28;20118;-11
2022/06/20 13:42:14;;;;;;;15.15;5.28;;;41.60;28.10;;;;;;5041180;28;20043;-11
2022/06/20 13:45:14;;;;;;;7.65;4.75;;;41.70;28.10;;;;;;5051935;28;20155;-11
2022/06/20 13:47:51;;;;;;;8.07;4.93;;;41.90;28.00;;;;;;5051832;28;20063;-11
2022/06/20 13:50:29;;;;;;;12.00;4.80;;;42.20;27.80;;;;;;5051532;28;20037;-11
2022/06/20 13:53:04;;;;;;;10.85;4.97;;;42.30;28.10;;;;;;5051925;28;20037;-11
2022/06/20 13:56:14;;;;;;;11.80;5.15;;;42.50;28.00;;;;;;5052055;28;20025;-11
2022/06/20 13:58:59;;;;;;;9.82;5.03;;;42.60;27.40;;;;;;4999295;28;20510;-12